Time;durP1;ratioP1;P1;durP2;ratioP2;P2;SDS_P1;SDS_P2;PMS_P1;PMS_P2;Temp;Humidity;BMP_temperature;BMP_pressure;BME280_temperature;BME280_humidity;BME280_pressure;Samples;Min_cycle;Max_cycle;Signal;HPM_P1;HPM_P2
2022/03/08 00:00:36;;;;;;;12.73;6.18;;;;;;;;;;5079686;28;20521;-65
2022/03/08 00:03:03;;;;;;;11.77;5.57;;;;;;;;;;5079331;28;20031;-64
2022/03/08 00:05:29;;;;;;;11.63;5.65;;;;;;;;;;5092562;28;20028;-64
2022/03/08 00:07:55;;;;;;;13.25;6.75;;;;;;;;;;5082502;28;20419;-65
2022/03/08 00:10:21;;;;;;;12.73;6.07;;;;;;;;;;5094651;28;20351;-64
2022/03/08 00:12:47;;;;;;;12.35;5.80;;;;;;;;;;5086949;28;20792;-64
2022/03/08 00:15:17;;;;;;;12.05;6.10;;;;;;;;;;5078195;28;20055;-64
2022/03/08 00:17:42;;;;;;;11.70;5.70;;;;;;;;;;5082797;28;20409;-64
2022/03/08 00:20:09;;;;;;;11.27;6.13;;;;;;;;;;5077475;28;20078;-64
2022/03/08 00:22:36;;;;;;;12.50;5.78;;;;;;;;;;5083299;28;20488;-65
2022/03/08 00:25:03;;;;;;;11.52;5.70;;;;;;;;;;5095132;28;20028;-65
2022/03/08 00:27:29;;;;;;;11.10;6.00;;;;;;;;;;5081780;28;20039;-64
2022/03/08 00:29:55;;;;;;;12.02;6.15;;;;;;;;;;5075360;28;20036;-64
2022/03/08 00:32:20;;;;;;;9.93;5.53;;;;;;;;;;5075916;28;20039;-65
2022/03/08 00:34:46;;;;;;;11.93;6.03;;;;;;;;;;5089235;28;20043;-65
2022/03/08 00:37:11;;;;;;;11.63;5.50;;;;;;;;;;5089981;28;20036;-64
2022/03/08 00:39:37;;;;;;;9.73;5.78;;;;;;;;;;5078859;28;20173;-65
2022/03/08 00:42:02;;;;;;;12.57;5.97;;;;;;;;;;5096111;28;20043;-64
2022/03/08 00:44:28;;;;;;;11.18;5.68;;;;;;;;;;5082929;28;20373;-64
2022/03/08 00:46:53;;;;;;;12.23;5.63;;;;;;;;;;5094177;28;20051;-63
2022/03/08 00:49:19;;;;;;;12.48;6.10;;;;;;;;;;5092295;28;20035;-64
2022/03/08 00:51:44;;;;;;;12.10;5.93;;;;;;;;;;5090187;28;20037;-65
2022/03/08 00:54:10;;;;;;;11.82;5.68;;;;;;;;;;5093081;28;20396;-63
2022/03/08 00:56:35;;;;;;;11.38;5.70;;;;;;;;;;5080063;28;20033;-64
2022/03/08 00:59:00;;;;;;;10.57;5.20;;;;;;;;;;5074268;28;20039;-65
2022/03/08 01:01:26;;;;;;;10.98;5.55;;;;;;;;;;5073738;28;20028;-65
2022/03/08 01:03:51;;;;;;;9.65;5.57;;;;;;;;;;5073989;28;20033;-64
2022/03/08 01:06:17;;;;;;;12.93;5.25;;;;;;;;;;5078504;28;20139;-65
2022/03/08 01:08:42;;;;;;;9.57;5.05;;;;;;;;;;5083437;28;20035;-65
2022/03/08 01:11:07;;;;;;;10.13;5.60;;;;;;;;;;5075667;28;20029;-64
2022/03/08 01:13:33;;;;;;;10.98;5.10;;;;;;;;;;5086598;28;20059;-66
2022/03/08 01:15:59;;;;;;;10.80;5.78;;;;;;;;;;5089216;28;20027;-64
2022/03/08 01:18:24;;;;;;;8.93;4.97;;;;;;;;;;5075485;28;20383;-65
2022/03/08 01:20:50;;;;;;;10.85;5.53;;;;;;;;;;5086147;28;20028;-65
2022/03/08 01:23:16;;;;;;;12.88;5.50;;;;;;;;;;5078612;28;20079;-65
2022/03/08 01:25:41;;;;;;;8.88;4.78;;;;;;;;;;5073431;28;20037;-65
2022/03/08 01:28:08;;;;;;;9.77;5.13;;;;;;;;;;5090931;28;20024;-65
2022/03/08 01:30:34;;;;;;;11.25;5.10;;;;;;;;;;5092793;28;20107;-65
2022/03/08 01:32:59;;;;;;;9.32;5.07;;;;;;;;;;5085193;28;20488;-65
2022/03/08 01:35:25;;;;;;;11.73;5.35;;;;;;;;;;5072945;28;20040;-65
2022/03/08 01:37:51;;;;;;;9.68;5.35;;;;;;;;;;5079068;28;20389;-66
2022/03/08 01:40:17;;;;;;;10.32;5.32;;;;;;;;;;5087545;28;20024;-65
2022/03/08 01:42:46;;;;;;;10.38;5.05;;;;;;;;;;5084317;28;20031;-65
2022/03/08 01:45:12;;;;;;;10.57;5.22;;;;;;;;;;5081067;28;20119;-65
2022/03/08 01:47:38;;;;;;;10.45;5.22;;;;;;;;;;5073002;28;20039;-64
2022/03/08 01:50:04;;;;;;;11.07;5.25;;;;;;;;;;5080196;28;20036;-64
2022/03/08 01:52:29;;;;;;;9.27;4.88;;;;;;;;;;5072048;28;20044;-65
2022/03/08 01:54:55;;;;;;;10.60;5.07;;;;;;;;;;5081350;28;20055;-65
2022/03/08 01:57:23;;;;;;;10.25;5.05;;;;;;;;;;5076459;28;20086;-65
2022/03/08 01:59:49;;;;;;;10.85;5.57;;;;;;;;;;5084162;28;20028;-65
2022/03/08 02:02:15;;;;;;;10.23;5.40;;;;;;;;;;5092177;28;20127;-65
2022/03/08 02:04:40;;;;;;;10.93;5.45;;;;;;;;;;5091736;28;20061;-65
2022/03/08 02:07:07;;;;;;;9.82;4.90;;;;;;;;;;5092796;28;20024;-66
2022/03/08 02:09:33;;;;;;;10.63;5.28;;;;;;;;;;5088527;28;20051;-66
2022/03/08 02:11:58;;;;;;;10.20;5.20;;;;;;;;;;5072422;28;20032;-66
2022/03/08 02:14:26;;;;;;;10.05;5.55;;;;;;;;;;5085016;28;20120;-65
2022/03/08 02:16:51;;;;;;;9.65;4.78;;;;;;;;;;5089006;28;20071;-66
2022/03/08 02:19:16;;;;;;;9.52;5.45;;;;;;;;;;5079004;28;20063;-65
2022/03/08 02:21:45;;;;;;;12.52;5.40;;;;;;;;;;5086805;28;20059;-65
2022/03/08 02:24:11;;;;;;;9.35;5.47;;;;;;;;;;5080242;28;20025;-64
2022/03/08 02:26:37;;;;;;;11.35;5.43;;;;;;;;;;5072223;28;20354;-65
2022/03/08 02:29:06;;;;;;;11.25;5.63;;;;;;;;;;5080611;28;20046;-65
2022/03/08 02:31:32;;;;;;;10.40;5.38;;;;;;;;;;5071484;28;20024;-65
2022/03/08 02:33:57;;;;;;;11.40;5.07;;;;;;;;;;5077188;28;20029;-64
2022/03/08 02:36:23;;;;;;;9.23;4.95;;;;;;;;;;5071289;28;20513;-65
2022/03/08 02:38:49;;;;;;;10.23;5.45;;;;;;;;;;5081349;28;20619;-65
2022/03/08 02:41:14;;;;;;;10.48;5.55;;;;;;;;;;5090465;28;20385;-64
2022/03/08 02:43:40;;;;;;;9.35;5.40;;;;;;;;;;5081378;28;20024;-66
2022/03/08 02:46:05;;;;;;;9.90;5.22;;;;;;;;;;5096444;28;20123;-66
2022/03/08 02:48:31;;;;;;;11.30;5.18;;;;;;;;;;5086845;28;20032;-65
2022/03/08 02:50:57;;;;;;;10.18;4.97;;;;;;;;;;5093428;28;20492;-66
2022/03/08 02:53:23;;;;;;;7.82;4.72;;;;;;;;;;5075932;28;20028;-64
2022/03/08 02:55:49;;;;;;;10.27;5.13;;;;;;;;;;5089050;28;20031;-63
2022/03/08 02:58:15;;;;;;;10.18;5.30;;;;;;;;;;5080778;28;20040;-64
2022/03/08 03:00:41;;;;;;;9.05;5.15;;;;;;;;;;5086499;28;20040;-65
2022/03/08 03:03:07;;;;;;;11.75;5.43;;;;;;;;;;5090687;28;20032;-65
2022/03/08 03:05:33;;;;;;;9.02;5.20;;;;;;;;;;5079049;28;20161;-65
2022/03/08 03:07:59;;;;;;;11.07;5.60;;;;;;;;;;5080710;28;20407;-65
2022/03/08 03:10:25;;;;;;;8.73;5.03;;;;;;;;;;5091250;28;20062;-66
2022/03/08 03:12:52;;;;;;;11.18;5.22;;;;;;;;;;5082888;28;20045;-65
2022/03/08 03:15:18;;;;;;;10.55;5.20;;;;;;;;;;5072463;28;20039;-65
2022/03/08 03:17:45;;;;;;;10.55;5.50;;;;;;;;;;5080617;28;20044;-65
2022/03/08 03:20:15;;;;;;;11.23;5.47;;;;;;;;;;5084150;28;20036;-66
2022/03/08 03:22:41;;;;;;;10.38;5.53;;;;;;;;;;5074121;28;20024;-65
2022/03/08 03:25:07;;;;;;;10.10;5.50;;;;;;;;;;5072344;28;20039;-65
2022/03/08 03:27:33;;;;;;;10.38;5.57;;;;;;;;;;5074582;28;20165;-65
2022/03/08 03:29:59;;;;;;;10.02;5.55;;;;;;;;;;5084920;28;20536;-65
2022/03/08 03:32:24;;;;;;;12.15;5.85;;;;;;;;;;5087265;28;20060;-66
2022/03/08 03:34:50;;;;;;;10.13;5.30;;;;;;;;;;5077676;28;20473;-65
2022/03/08 03:37:16;;;;;;;10.95;5.75;;;;;;;;;;5075668;28;20157;-63
2022/03/08 03:39:42;;;;;;;9.98;5.55;;;;;;;;;;5093272;28;20053;-65
2022/03/08 03:42:07;;;;;;;10.85;5.85;;;;;;;;;;5088233;28;20043;-65
2022/03/08 03:44:33;;;;;;;14.70;5.97;;;;;;;;;;5076163;28;20029;-65
2022/03/08 03:46:59;;;;;;;13.05;6.00;;;;;;;;;;5089909;28;20097;-66
2022/03/08 03:49:24;;;;;;;14.23;6.85;;;;;;;;;;5075050;28;20059;-65
2022/03/08 03:51:50;;;;;;;12.32;6.15;;;;;;;;;;5086291;28;20036;-64
2022/03/08 03:54:20;;;;;;;11.50;6.32;;;;;;;;;;5093623;28;20504;-64
2022/03/08 03:56:45;;;;;;;12.90;6.40;;;;;;;;;;5081961;28;20039;-65
2022/03/08 03:59:11;;;;;;;12.55;6.88;;;;;;;;;;5093470;28;20039;-64
2022/03/08 04:01:36;;;;;;;11.45;5.82;;;;;;;;;;5093774;28;20035;-64
2022/03/08 04:04:02;;;;;;;13.18;6.95;;;;;;;;;;5078781;28;20040;-64
2022/03/08 04:06:27;;;;;;;12.00;6.15;;;;;;;;;;5077781;28;20024;-64
2022/03/08 04:08:52;;;;;;;12.18;5.72;;;;;;;;;;5089807;28;20043;-65
2022/03/08 04:11:18;;;;;;;13.23;6.50;;;;;;;;;;5073460;28;20028;-64
2022/03/08 04:13:43;;;;;;;11.77;6.10;;;;;;;;;;5081117;28;20038;-65
2022/03/08 04:16:10;;;;;;;13.55;6.88;;;;;;;;;;5078672;28;20036;-64
2022/03/08 04:18:35;;;;;;;17.23;6.75;;;;;;;;;;5084369;28;20060;-65
2022/03/08 04:21:01;;;;;;;13.80;7.05;;;;;;;;;;5080588;28;20569;-65
2022/03/08 04:23:26;;;;;;;18.60;6.70;;;;;;;;;;5074462;28;20033;-65
2022/03/08 04:25:52;;;;;;;13.07;6.10;;;;;;;;;;5085963;28;20040;-65
2022/03/08 04:28:17;;;;;;;14.10;6.95;;;;;;;;;;5093651;28;20044;-64
2022/03/08 04:30:42;;;;;;;13.68;6.82;;;;;;;;;;5090354;28;20040;-64
2022/03/08 04:33:08;;;;;;;12.73;6.80;;;;;;;;;;5084703;28;20033;-64
2022/03/08 04:35:33;;;;;;;16.20;6.70;;;;;;;;;;5090553;28;20082;-64
2022/03/08 04:38:00;;;;;;;12.90;6.43;;;;;;;;;;5093987;28;21572;-64
2022/03/08 04:40:26;;;;;;;17.25;6.82;;;;;;;;;;5089498;28;20036;-64
2022/03/08 04:42:51;;;;;;;13.57;6.90;;;;;;;;;;5075251;28;20173;-65
2022/03/08 04:45:18;;;;;;;14.95;7.28;;;;;;;;;;5076447;28;20389;-65
2022/03/08 04:47:43;;;;;;;13.55;6.85;;;;;;;;;;5082876;28;20041;-64
2022/03/08 04:50:13;;;;;;;12.48;6.88;;;;;;;;;;5094492;28;20036;-66
2022/03/08 04:52:39;;;;;;;13.25;6.70;;;;;;;;;;5074343;28;20199;-65
2022/03/08 04:55:05;;;;;;;15.32;6.78;;;;;;;;;;5078109;28;20466;-65
2022/03/08 04:57:30;;;;;;;13.15;6.70;;;;;;;;;;5093560;28;20362;-65
2022/03/08 04:59:56;;;;;;;14.65;7.07;;;;;;;;;;5085114;28;20032;-65
2022/03/08 05:02:21;;;;;;;13.32;6.78;;;;;;;;;;5074051;28;20028;-64
2022/03/08 05:04:47;;;;;;;15.93;7.15;;;;;;;;;;5082925;28;20041;-62
2022/03/08 05:07:12;;;;;;;13.82;6.85;;;;;;;;;;5075140;28;20047;-65
2022/03/08 05:09:37;;;;;;;14.80;6.95;;;;;;;;;;5076943;28;20036;-65
2022/03/08 05:12:03;;;;;;;14.52;7.03;;;;;;;;;;5089287;28;20024;-65
2022/03/08 05:14:29;;;;;;;16.60;7.50;;;;;;;;;;5088480;28;20063;-66
2022/03/08 05:16:54;;;;;;;14.57;6.80;;;;;;;;;;5085829;28;20023;-66
2022/03/08 05:19:20;;;;;;;13.65;6.50;;;;;;;;;;5076060;28;20123;-65
2022/03/08 05:21:45;;;;;;;17.15;7.32;;;;;;;;;;5083817;28;20075;-65
2022/03/08 05:24:11;;;;;;;14.35;6.85;;;;;;;;;;5074341;28;20047;-64
2022/03/08 05:26:37;;;;;;;15.13;7.20;;;;;;;;;;5076057;28;20040;-65
2022/03/08 05:29:04;;;;;;;13.55;6.53;;;;;;;;;;5074362;28;20115;-64
2022/03/08 05:31:29;;;;;;;14.90;7.10;;;;;;;;;;5087124;28;20457;-64
2022/03/08 05:33:55;;;;;;;13.55;6.93;;;;;;;;;;5093685;28;20099;-65
2022/03/08 05:36:20;;;;;;;16.15;7.63;;;;;;;;;;5111919;28;20077;-65
2022/03/08 05:38:45;;;;;;;15.75;7.38;;;;;;;;;;5112960;28;20411;-65
2022/03/08 05:41:11;;;;;;;16.00;7.82;;;;;;;;;;5095658;28;20032;-66
2022/03/08 05:43:36;;;;;;;18.50;7.28;;;;;;;;;;5090139;28;20370;-65
2022/03/08 05:46:02;;;;;;;16.15;7.28;;;;;;;;;;5107583;28;20050;-66
2022/03/08 05:48:27;;;;;;;20.73;7.38;;;;;;;;;;5111533;28;20059;-65
2022/03/08 05:50:52;;;;;;;17.48;7.18;;;;;;;;;;5113907;28;20361;-65
2022/03/08 05:53:18;;;;;;;15.02;7.32;;;;;;;;;;5111913;28;20080;-65
2022/03/08 05:55:43;;;;;;;15.48;7.85;;;;;;;;;;5100175;27;20016;-66
2022/03/08 05:58:09;;;;;;;16.45;7.75;;;;;;;;;;5091840;28;20510;-65
2022/03/08 06:00:34;;;;;;;15.05;7.47;;;;;;;;;;5090201;28;20056;-65
2022/03/08 06:02:59;;;;;;;15.20;7.68;;;;;;;;;;5090987;28;20573;-65
2022/03/08 06:05:25;;;;;;;16.20;7.78;;;;;;;;;;5076771;28;20031;-64
2022/03/08 06:07:50;;;;;;;17.38;7.95;;;;;;;;;;5092066;28;20051;-66
2022/03/08 06:10:16;;;;;;;20.33;11.52;;;;;;;;;;5091270;28;20359;-71
2022/03/08 06:12:41;;;;;;;14.63;7.32;;;;;;;;;;5090946;28;20032;-70
2022/03/08 06:15:08;;;;;;;15.20;7.70;;;;;;;;;;5097370;28;20131;-74
2022/03/08 06:17:34;;;;;;;19.52;7.63;;;;;;;;;;5091344;28;20035;-78
2022/03/08 06:19:59;;;;;;;16.35;7.60;;;;;;;;;;5091481;28;20036;-70
2022/03/08 06:22:25;;;;;;;15.68;7.38;;;;;;;;;;5091684;28;20469;-70
2022/03/08 06:24:50;;;;;;;16.52;8.27;;;;;;;;;;5091072;28;20024;-74
2022/03/08 06:27:15;;;;;;;16.50;7.85;;;;;;;;;;5092668;28;20032;-76
2022/03/08 06:29:41;;;;;;;14.90;7.60;;;;;;;;;;5091912;28;20062;-75
2022/03/08 06:32:07;;;;;;;15.75;7.95;;;;;;;;;;5093685;28;20036;-75
2022/03/08 06:34:33;;;;;;;16.05;8.45;;;;;;;;;;5111498;28;20035;-76
2022/03/08 06:36:58;;;;;;;17.23;8.13;;;;;;;;;;5098188;28;20115;-74
2022/03/08 06:39:24;;;;;;;14.35;7.88;;;;;;;;;;5092082;28;20025;-71
2022/03/08 06:41:49;;;;;;;15.60;7.25;;;;;;;;;;5091886;28;20059;-77
2022/03/08 06:44:15;;;;;;;16.88;8.55;;;;;;;;;;5092079;28;20024;-74
2022/03/08 06:46:44;;;;;;;17.30;7.70;;;;;;;;;;5091406;28;20036;-77
2022/03/08 06:49:10;;;;;;;15.63;7.70;;;;;;;;;;5092208;28;20119;-75
2022/03/08 06:51:37;;;;;;;16.05;7.72;;;;;;;;;;5090951;28;20058;-76
2022/03/08 06:54:06;;;;;;;16.80;8.07;;;;;;;;;;5092355;28;20031;-75
2022/03/08 06:56:35;;;;;;;16.52;7.57;;;;;;;;;;5090929;28;20123;-66
2022/03/08 06:59:02;;;;;;;16.75;7.88;;;;;;;;;;5091743;28;20106;-77
2022/03/08 07:01:28;;;;;;;15.05;7.85;;;;;;;;;;5090480;28;20468;-68
2022/03/08 07:03:53;;;;;;;19.95;8.15;;;;;;;;;;5093678;28;20481;-71
2022/03/08 07:06:18;;;;;;;15.70;8.18;;;;;;;;;;5092004;28;20035;-70
2022/03/08 07:08:44;;;;;;;13.68;7.93;;;;;;;;;;5093241;28;20115;-70
2022/03/08 07:11:10;;;;;;;14.38;7.45;;;;;;;;;;5059275;28;20111;-69
2022/03/08 07:13:36;;;;;;;15.68;7.80;;;;;;;;;;5090889;28;20078;-71
2022/03/08 07:16:01;;;;;;;14.23;7.60;;;;;;;;;;5098351;28;20027;-71
2022/03/08 07:18:27;;;;;;;15.13;7.70;;;;;;;;;;5103147;28;20048;-71
2022/03/08 07:20:54;;;;;;;16.70;7.68;;;;;;;;;;5091210;28;20085;-76
2022/03/08 07:23:19;;;;;;;18.85;7.53;;;;;;;;;;5091774;28;20032;-76
2022/03/08 07:25:45;;;;;;;14.00;7.18;;;;;;;;;;5090571;28;20036;-75
2022/03/08 07:28:10;;;;;;;14.70;7.03;;;;;;;;;;5089840;28;20071;-74
2022/03/08 07:30:36;;;;;;;16.42;7.07;;;;;;;;;;5090820;28;20039;-76
2022/03/08 07:33:02;;;;;;;18.35;7.00;;;;;;;;;;5091292;28;20419;-78
2022/03/08 07:35:27;;;;;;;16.15;6.75;;;;;;;;;;5090083;28;20435;-73
2022/03/08 07:37:52;;;;;;;13.15;7.38;;;;;;;;;;5091315;28;20074;-75
2022/03/08 07:40:18;;;;;;;14.90;7.10;;;;;;;;;;5091507;28;20024;-73
2022/03/08 07:42:43;;;;;;;13.85;7.30;;;;;;;;;;5089363;28;20036;-75
2022/03/08 07:45:09;;;;;;;13.68;7.30;;;;;;;;;;5091222;28;20016;-77
2022/03/08 07:47:34;;;;;;;16.27;7.20;;;;;;;;;;5090034;28;20110;-77
2022/03/08 07:50:00;;;;;;;12.38;7.18;;;;;;;;;;5091038;28;20153;-73
2022/03/08 07:52:26;;;;;;;12.80;7.00;;;;;;;;;;5103884;28;20059;-67
2022/03/08 07:54:51;;;;;;;14.63;6.82;;;;;;;;;;5091192;28;20047;-76
2022/03/08 07:57:17;;;;;;;14.70;7.15;;;;;;;;;;5095910;28;20027;-73
2022/03/08 07:59:42;;;;;;;13.05;6.93;;;;;;;;;;5110690;28;20039;-73
2022/03/08 08:02:08;;;;;;;12.65;6.95;;;;;;;;;;5111827;28;20024;-78
2022/03/08 08:04:34;;;;;;;15.10;7.03;;;;;;;;;;5105634;28;20042;-75
2022/03/08 08:06:59;;;;;;;13.13;6.60;;;;;;;;;;5090244;28;20152;-67
2022/03/08 08:09:24;;;;;;;11.63;6.75;;;;;;;;;;5096906;28;20118;-73
2022/03/08 08:11:50;;;;;;;14.50;7.30;;;;;;;;;;5090364;28;20073;-74
2022/03/08 08:14:16;;;;;;;11.07;6.30;;;;;;;;;;5096718;28;20027;-73
2022/03/08 08:16:42;;;;;;;12.30;6.93;;;;;;;;;;5091763;28;20032;-73
2022/03/08 08:19:08;;;;;;;13.55;6.80;;;;;;;;;;5092886;28;20047;-73
2022/03/08 08:21:33;;;;;;;14.10;6.80;;;;;;;;;;5088961;28;20054;-73
2022/03/08 08:24:00;;;;;;;11.63;6.50;;;;;;;;;;5094342;28;20070;-74
2022/03/08 08:26:26;;;;;;;11.07;6.60;;;;;;;;;;5093207;28;20047;-73
2022/03/08 08:28:51;;;;;;;11.80;6.38;;;;;;;;;;5094026;28;20036;-73
2022/03/08 08:31:17;;;;;;;13.77;6.60;;;;;;;;;;5094593;28;20085;-74
2022/03/08 08:33:42;;;;;;;11.98;6.65;;;;;;;;;;5093341;28;20492;-74
2022/03/08 08:36:08;;;;;;;12.63;6.47;;;;;;;;;;5093416;28;20536;-75
2022/03/08 08:38:33;;;;;;;11.90;6.55;;;;;;;;;;5093603;28;20032;-75
2022/03/08 08:40:59;;;;;;;13.25;6.90;;;;;;;;;;5093746;28;20040;-75
2022/03/08 08:43:24;;;;;;;13.32;6.75;;;;;;;;;;5093064;28;20028;-74
2022/03/08 08:45:52;;;;;;;11.45;6.72;;;;;;;;;;5093607;28;20037;-74
2022/03/08 08:48:20;;;;;;;11.25;5.82;;;;;;;;;;5094143;28;20119;-73
2022/03/08 08:50:46;;;;;;;10.55;6.55;;;;;;;;;;5074732;28;20028;-74
2022/03/08 08:53:11;;;;;;;9.68;6.05;;;;;;;;;;5094221;28;20449;-74
2022/03/08 08:55:38;;;;;;;11.02;5.95;;;;;;;;;;5093275;28;20047;-74
2022/03/08 08:58:06;;;;;;;12.20;6.47;;;;;;;;;;5094360;28;20028;-75
2022/03/08 09:00:32;;;;;;;13.40;6.38;;;;;;;;;;5092685;28;20063;-72
2022/03/08 09:02:58;;;;;;;10.93;6.38;;;;;;;;;;5094349;28;20551;-76
2022/03/08 09:05:23;;;;;;;12.18;7.00;;;;;;;;;;5093434;28;20036;-72
2022/03/08 09:07:49;;;;;;;12.02;6.88;;;;;;;;;;5092335;28;20028;-75
2022/03/08 09:10:15;;;;;;;11.88;6.38;;;;;;;;;;5093600;28;20062;-73
2022/03/08 09:12:47;;;;;;;10.63;7.00;;;;;;;;;;5092483;28;20127;-75
2022/03/08 09:15:12;;;;;;;11.98;6.30;;;;;;;;;;5092704;28;20035;-75
2022/03/08 09:17:38;;;;;;;11.55;6.63;;;;;;;;;;5092680;28;20082;-73
2022/03/08 09:20:05;;;;;;;10.73;6.10;;;;;;;;;;5093425;28;20086;-72
2022/03/08 09:22:30;;;;;;;10.90;6.82;;;;;;;;;;5092926;28;20036;-70
2022/03/08 09:24:56;;;;;;;12.18;6.57;;;;;;;;;;5093057;28;20451;-73
2022/03/08 09:27:21;;;;;;;14.70;6.30;;;;;;;;;;5093540;28;20111;-73
2022/03/08 09:29:47;;;;;;;10.93;6.35;;;;;;;;;;5091189;28;20028;-73
2022/03/08 09:32:12;;;;;;;12.35;6.35;;;;;;;;;;5091814;28;20534;-73
2022/03/08 09:34:39;;;;;;;10.57;6.05;;;;;;;;;;5094176;28;20061;-73
2022/03/08 09:37:05;;;;;;;15.00;6.70;;;;;;;;;;5094739;27;20058;-74
2022/03/08 09:39:31;;;;;;;9.98;6.30;;;;;;;;;;5095481;28;20063;-70
2022/03/08 09:41:58;;;;;;;10.18;6.00;;;;;;;;;;5089732;28;20036;-70
2022/03/08 09:44:29;;;;;;;13.45;6.43;;;;;;;;;;5091906;28;20035;-72
2022/03/08 09:46:55;;;;;;;9.35;5.78;;;;;;;;;;5100256;28;20047;-73
2022/03/08 09:49:21;;;;;;;10.75;6.40;;;;;;;;;;5105485;28;20161;-72
2022/03/08 09:51:46;;;;;;;10.27;6.05;;;;;;;;;;5094318;28;20109;-72
2022/03/08 09:54:12;;;;;;;9.82;5.72;;;;;;;;;;5093340;28;20024;-73
2022/03/08 09:56:38;;;;;;;10.88;5.93;;;;;;;;;;5092147;28;20082;-73
2022/03/08 09:59:04;;;;;;;9.88;5.82;;;;;;;;;;5086591;28;20056;-75
2022/03/08 10:01:29;;;;;;;14.63;6.32;;;;;;;;;;5072712;28;20032;-72
2022/03/08 10:03:55;;;;;;;9.38;4.85;;;;;;;;;;5072069;28;20024;-76
2022/03/08 10:06:20;;;;;;;9.85;4.90;;;;;;;;;;5091901;28;20059;-75
2022/03/08 10:08:46;;;;;;;8.32;4.93;;;;;;;;;;5092080;28;20032;-74
2022/03/08 10:11:14;;;;;;;9.65;4.85;;;;;;;;;;5091648;28;20030;-73
2022/03/08 10:13:45;;;;;;;8.95;4.72;;;;;;;;;;5092087;28;20028;-75
2022/03/08 10:16:14;;;;;;;;;;;;;;;;;;5092258;28;20056;-72
2022/03/08 10:18:46;;;;;;;8.02;4.45;;;;;;;;;;5091310;28;19995;-75
2022/03/08 10:21:27;;;;;;;7.85;4.82;;;;;;;;;;5092754;28;20027;-73
2022/03/08 10:23:53;;;;;;;;;;;;;;;;;;5104989;28;20039;-73
2022/03/08 10:26:19;;;;;;;10.32;4.60;;;;;;;;;;5092342;28;19946;-74
2022/03/08 10:28:50;;;;;;;10.93;4.88;;;;;;;;;;5098368;28;20031;-72
2022/03/08 10:31:16;;;;;;;9.18;5.05;;;;;;;;;;5092372;28;20032;-74
2022/03/08 10:33:42;;;;;;;10.65;4.95;;;;;;;;;;5091714;28;20032;-72
2022/03/08 10:36:22;;;;;;;8.13;4.50;;;;;;;;;;5092350;28;20036;-72
2022/03/08 10:39:10;;;;;;;9.23;4.97;;;;;;;;;;5091447;28;20034;-74
2022/03/08 10:41:50;;;;;;;11.40;4.93;;;;;;;;;;5091041;28;20059;-73
2022/03/08 10:44:23;;;;;;;8.35;4.60;;;;;;;;;;5091199;28;20031;-73
2022/03/08 10:47:09;;;;;;;8.23;4.82;;;;;;;;;;5090962;28;20194;-72
2022/03/08 10:49:48;;;;;;;10.93;5.00;;;;;;;;;;5086196;28;20024;-72
2022/03/08 10:52:13;;;;;;;7.35;4.53;;;;;;;;;;5091642;28;20496;-69
2022/03/08 10:54:39;;;;;;;7.97;4.55;;;;;;;;;;5091184;28;20028;-73
2022/03/08 10:57:04;;;;;;;7.30;4.43;;;;;;;;;;5091283;28;20043;-71
2022/03/08 10:59:30;;;;;;;9.88;4.57;;;;;;;;;;5091738;28;20032;-69
2022/03/08 11:01:56;;;;;;;9.35;4.93;;;;;;;;;;5089760;28;20028;-74
2022/03/08 11:04:23;;;;;;;10.45;4.53;;;;;;;;;;5091669;28;20059;-73
2022/03/08 11:06:52;;;;;;;8.13;4.05;;;;;;;;;;5088972;28;20031;-73
2022/03/08 11:09:18;;;;;;;10.25;4.53;;;;;;;;;;5092066;28;20035;-72
2022/03/08 11:11:44;;;;;;;8.65;4.78;;;;;;;;;;5090803;28;20047;-73
2022/03/08 11:14:10;;;;;;;8.85;4.47;;;;;;;;;;5092269;28;20032;-74
2022/03/08 11:16:37;;;;;;;7.88;4.75;;;;;;;;;;5090524;28;20076;-73
2022/03/08 11:19:05;;;;;;;9.95;4.90;;;;;;;;;;5090921;28;20044;-73
2022/03/08 11:21:32;;;;;;;8.05;4.55;;;;;;;;;;5072684;28;20044;-69
2022/03/08 11:23:59;;;;;;;7.57;4.30;;;;;;;;;;5091556;28;20032;-73
2022/03/08 11:26:25;;;;;;;8.00;4.15;;;;;;;;;;5092089;28;20036;-74
2022/03/08 11:28:51;;;;;;;10.88;4.30;;;;;;;;;;5090830;28;20039;-69
2022/03/08 11:31:21;;;;;;;6.38;4.22;;;;;;;;;;5104067;28;20028;-72
2022/03/08 11:33:59;;;;;;;8.80;4.32;;;;;;;;;;5098736;28;20043;-71
2022/03/08 11:36:38;;;;;;;6.28;3.95;;;;;;;;;;5071475;28;20150;-72
2022/03/08 11:39:15;;;;;;;8.52;4.50;;;;;;;;;;5077170;28;20031;-71
2022/03/08 11:41:42;;;;;;;6.63;4.05;;;;;;;;;;5080502;28;20032;-74
2022/03/08 11:44:29;;;;;;;6.55;4.30;;;;;;;;;;5088750;28;20046;-72
2022/03/08 11:47:07;;;;;;;6.90;4.22;;;;;;;;;;5097292;28;20046;-73
2022/03/08 11:50:15;;;;;;;7.43;4.30;;;;;;;;;;5101886;28;20043;-68
2022/03/08 11:52:41;;;;;;;6.50;3.97;;;;;;;;;;5070342;28;20074;-71
2022/03/08 11:55:10;;;;;;;10.55;4.03;;;;;;;;;;5091510;28;20350;-72
2022/03/08 11:57:47;;;;;;;7.43;4.15;;;;;;;;;;5091869;28;20438;-71
2022/03/08 12:00:29;;;;;;;7.90;4.43;;;;;;;;;;5081257;28;20397;-71
2022/03/08 12:02:57;;;;;;;6.47;4.40;;;;;;;;;;5093371;28;20024;-74
2022/03/08 12:05:38;;;;;;;10.05;4.65;;;;;;;;;;5095336;28;20060;-73
2022/03/08 12:08:22;;;;;;;8.15;4.53;;;;;;;;;;5101815;28;20036;-73
2022/03/08 12:10:48;;;;;;;6.97;4.50;;;;;;;;;;5093631;28;20477;-71
2022/03/08 12:13:15;;;;;;;6.05;4.15;;;;;;;;;;5094075;28;20032;-70
2022/03/08 12:16:08;;;;;;;7.82;4.18;;;;;;;;;;5094214;28;20040;-74
2022/03/08 12:18:38;;;;;;;6.57;4.20;;;;;;;;;;5083484;28;20046;-70
2022/03/08 12:21:24;;;;;;;8.40;4.03;;;;;;;;;;5095014;28;20461;-72
2022/03/08 12:24:11;;;;;;;7.15;4.15;;;;;;;;;;5060718;28;20047;-71
2022/03/08 12:26:39;;;;;;;5.55;3.78;;;;;;;;;;5092797;28;20427;-71
2022/03/08 12:29:21;;;;;;;7.45;4.30;;;;;;;;;;5094875;28;20036;-71
2022/03/08 12:31:56;;;;;;;7.93;3.95;;;;;;;;;;5094143;28;20097;-72
2022/03/08 12:34:40;;;;;;;6.22;4.20;;;;;;;;;;5094700;28;20050;-72
2022/03/08 12:37:27;;;;;;;6.45;3.95;;;;;;;;;;5094787;28;20028;-73
2022/03/08 12:40:12;;;;;;;6.53;3.92;;;;;;;;;;5093856;28;20373;-72
2022/03/08 12:42:37;;;;;;;6.15;3.95;;;;;;;;;;5093028;28;20040;-74
2022/03/08 12:45:03;;;;;;;7.10;4.15;;;;;;;;;;5094506;28;20366;-74
2022/03/08 12:47:32;;;;;;;6.28;4.07;;;;;;;;;;5094372;28;20107;-70
2022/03/08 12:50:03;;;;;;;5.78;3.78;;;;;;;;;;5093946;28;20063;-74
2022/03/08 12:52:29;;;;;;;5.93;3.85;;;;;;;;;;5094510;28;20032;-73
2022/03/08 12:54:56;;;;;;;8.30;3.80;;;;;;;;;;5095412;28;20030;-72
2022/03/08 12:57:23;;;;;;;6.18;3.95;;;;;;;;;;5093008;28;20374;-72
2022/03/08 12:59:51;;;;;;;5.88;3.92;;;;;;;;;;5092961;28;20825;-69
2022/03/08 13:02:18;;;;;;;6.43;3.90;;;;;;;;;;5101079;28;20070;-71
2022/03/08 13:04:44;;;;;;;6.15;3.60;;;;;;;;;;5113799;28;20043;-72
2022/03/08 13:07:12;;;;;;;5.53;3.38;;;;;;;;;;5080577;28;20078;-69
2022/03/08 13:09:51;;;;;;;5.90;3.38;;;;;;;;;;5106615;28;20031;-72
2022/03/08 13:12:20;;;;;;;5.93;3.42;;;;;;;;;;5107567;28;20028;-69
2022/03/08 13:15:07;;;;;;;5.35;3.70;;;;;;;;;;5103442;28;20032;-70
2022/03/08 13:17:33;;;;;;;5.47;3.28;;;;;;;;;;5072973;28;20029;-66
2022/03/08 13:19:58;;;;;;;5.45;3.58;;;;;;;;;;5079548;28;20431;-72
2022/03/08 13:22:24;;;;;;;6.55;3.88;;;;;;;;;;5104096;28;20062;-67
2022/03/08 13:25:25;;;;;;;7.10;3.45;;;;;;;;;;5079552;28;20638;-67
2022/03/08 13:27:58;;;;;;;5.43;3.60;;;;;;;;;;5032860;28;20129;-70
2022/03/08 13:30:25;;;;;;;5.50;3.50;;;;;;;;;;5066657;28;20056;-69
2022/03/08 13:33:26;;;;;;;5.28;3.35;;;;;;;;;;5078537;28;20114;-72
2022/03/08 13:35:59;;;;;;;;;;;;;;;;;;5102877;28;20119;-73
2022/03/08 13:38:29;;;;;;;5.13;3.10;;;;;;;;;;5093825;28;19912;-73
2022/03/08 13:40:58;;;;;;;7.88;3.95;;;;;;;;;;5092923;28;20032;-74
2022/03/08 13:43:25;;;;;;;5.93;3.83;;;;;;;;;;5093626;28;20032;-74
2022/03/08 13:45:52;;;;;;;6.90;3.75;;;;;;;;;;5090945;28;20506;-72
2022/03/08 13:48:24;;;;;;;4.78;3.50;;;;;;;;;;5091115;28;20401;-75
2022/03/08 13:50:50;;;;;;;5.30;3.35;;;;;;;;;;5098007;28;20036;-75
2022/03/08 13:53:16;;;;;;;5.88;3.40;;;;;;;;;;5093807;28;20024;-73
2022/03/08 13:55:42;;;;;;;5.63;3.50;;;;;;;;;;5092525;28;20458;-73
2022/03/08 13:58:14;;;;;;;7.78;3.72;;;;;;;;;;5092566;28;20035;-75
2022/03/08 14:00:40;;;;;;;5.63;3.40;;;;;;;;;;5092015;28;20027;-72
2022/03/08 14:03:08;;;;;;;7.13;3.67;;;;;;;;;;5091638;28;20115;-75
2022/03/08 14:05:51;;;;;;;5.75;4.00;;;;;;;;;;5092463;28;20036;-70
2022/03/08 14:08:31;;;;;;;6.30;3.40;;;;;;;;;;5092989;28;20122;-71
2022/03/08 14:11:04;;;;;;;5.22;3.22;;;;;;;;;;5097531;28;20036;-72
2022/03/08 14:13:33;;;;;;;5.53;3.67;;;;;;;;;;5092301;28;20039;-71
2022/03/08 14:16:00;;;;;;;6.75;3.50;;;;;;;;;;5092847;28;20367;-70
2022/03/08 14:18:26;;;;;;;8.07;3.83;;;;;;;;;;5092181;28;20048;-72
2022/03/08 14:20:52;;;;;;;9.23;3.80;;;;;;;;;;5090429;28;20191;-72
2022/03/08 14:23:18;;;;;;;10.30;4.05;;;;;;;;;;5092532;28;20032;-72
2022/03/08 14:25:57;;;;;;;7.93;4.60;;;;;;;;;;5091839;28;20020;-71
2022/03/08 14:28:41;;;;;;;6.38;3.75;;;;;;;;;;5092523;28;20054;-71
2022/03/08 14:31:21;;;;;;;5.57;3.42;;;;;;;;;;5092468;28;20087;-72
2022/03/08 14:34:08;;;;;;;6.55;3.45;;;;;;;;;;5091335;28;20036;-72
2022/03/08 14:36:51;;;;;;;6.20;3.50;;;;;;;;;;5091427;28;20432;-67
2022/03/08 14:39:29;;;;;;;7.47;4.00;;;;;;;;;;5091158;28;20119;-72